Terminal Aerodrome Forecast
Issued by NWS

Home | Current Version | Previous Version | Text Only | Print | Product List | Glossary On
Versions: 1 2 3 4 5 6 7 8 9 10 11 12 13 14 15 16 17 18 19 20 21 22 23
000
FTUS43 KGRR 230844 AAA
TAFJXN
TAF AMD
KJXN 230844Z 2309/2406 24012KT P6SM BKN015
     FM231500 32006KT P6SM SCT025 SCT250
     FM240100 06007KT P6SM OVC025
     FM240400 08009G14KT 1 1/2SM -RA BR OVC007=

USA.gov is the U.S. government's official web portal to all federal, state and local government web resources and services.